Time;durP1;ratioP1;P1;durP2;ratioP2;P2;SDS_P1;SDS_P2;PMS_P1;PMS_P2;Temp;Humidity;BMP_temperature;BMP_pressure;BME280_temperature;BME280_humidity;BME280_pressure;Samples;Min_cycle;Max_cycle;Signal;HPM_P1;HPM_P2
2024/02/02 16:56:16;;;;;;;4.60;2.72;;;7.80;99.90;;;;;;7633028;19;20357;-73
2024/02/02 16:58:49;;;;;;;4.60;2.95;;;7.70;99.90;;;;;;7555991;19;20018;-75
2024/02/02 17:01:29;;;;;;;4.18;2.70;;;7.80;99.90;;;;;;7596850;19;20052;-72
2024/02/02 17:04:02;;;;;;;2.53;2.17;;;7.90;99.90;;;;;;7619955;19;20022;-72
2024/02/02 17:06:39;;;;;;;6.03;3.00;;;8.00;99.90;;;;;;7610559;19;20089;-72
2024/02/02 17:09:12;;;;;;;3.75;2.10;;;8.00;99.90;;;;;;7616974;19;20097;-73
2024/02/02 17:11:44;;;;;;;3.40;2.53;;;8.00;99.90;;;;;;7596611;19;20022;-75
2024/02/02 17:14:17;;;;;;;7.95;4.38;;;8.10;99.90;;;;;;7616851;19;20018;-74
2024/02/02 17:16:49;;;;;;;9.43;4.05;;;8.20;99.90;;;;;;7588978;19;20014;-73
2024/02/02 17:19:21;;;;;;;8.82;4.57;;;8.20;99.90;;;;;;7608440;19;20999;-73
2024/02/02 17:21:53;;;;;;;5.38;2.75;;;8.30;99.90;;;;;;7600320;19;20059;-73
2024/02/02 17:24:26;;;;;;;5.82;3.40;;;8.20;99.90;;;;;;7611115;19;20024;-73
2024/02/02 17:26:58;;;;;;;7.10;4.07;;;8.20;99.90;;;;;;7597717;19;20024;-73
2024/02/02 17:29:30;;;;;;;4.97;3.45;;;8.20;99.90;;;;;;7599145;19;20646;-74
2024/02/02 17:32:03;;;;;;;4.85;3.20;;;8.20;99.90;;;;;;7605853;19;20045;-73
2024/02/02 17:34:35;;;;;;;5.47;2.83;;;8.30;99.90;;;;;;7603856;19;20052;-72
2024/02/02 17:37:08;;;;;;;3.80;2.97;;;8.20;99.90;;;;;;7594458;19;20369;-73
2024/02/02 17:39:40;;;;;;;3.90;2.72;;;8.20;99.90;;;;;;7576854;19;20018;-73
2024/02/02 17:42:12;;;;;;;4.25;2.75;;;8.20;99.90;;;;;;7589332;19;20783;-73
2024/02/02 17:44:45;;;;;;;3.25;2.67;;;8.30;99.90;;;;;;7605979;19;20047;-73
2024/02/02 17:47:17;;;;;;;5.00;2.42;;;8.30;99.90;;;;;;7597516;19;20025;-73
2024/02/02 17:49:49;;;;;;;3.10;2.15;;;8.30;99.90;;;;;;7601303;19;21533;-73
2024/02/02 17:52:27;;;;;;;5.95;3.13;;;8.30;99.90;;;;;;7610749;19;20109;-76
2024/02/02 17:55:00;;;;;;;7.00;3.03;;;8.30;99.90;;;;;;7603985;19;20060;-74
2024/02/02 17:57:34;;;;;;;6.32;3.58;;;8.20;99.90;;;;;;7615311;19;20014;-74
2024/02/02 18:00:07;;;;;;;3.75;2.78;;;8.20;99.90;;;;;;7611520;19;20066;-73
2024/02/02 18:02:57;;;;;;;4.03;2.63;;;8.10;99.90;;;;;;7320723;19;10001369;-74
2024/02/02 18:05:29;;;;;;;7.93;2.85;;;8.10;99.90;;;;;;7601259;19;20300;-73
2024/02/02 18:08:03;;;;;;;3.45;2.65;;;8.10;99.90;;;;;;7563266;19;20015;-74
2024/02/02 18:10:35;;;;;;;5.73;3.13;;;8.10;99.90;;;;;;7577910;19;20015;-73
2024/02/02 18:13:08;;;;;;;4.97;2.70;;;8.10;99.90;;;;;;7566396;19;20299;-74
2024/02/02 18:15:40;;;;;;;4.05;2.60;;;8.10;99.90;;;;;;7582149;19;20021;-74
2024/02/02 18:18:13;;;;;;;4.88;2.72;;;8.10;99.90;;;;;;7576551;19;20021;-74
2024/02/02 18:20:47;;;;;;;4.47;2.85;;;8.00;99.90;;;;;;7572347;19;20346;-74
2024/02/02 18:23:20;;;;;;;4.13;2.88;;;8.00;99.90;;;;;;7581039;19;20116;-73
2024/02/02 18:25:52;;;;;;;4.85;2.90;;;7.80;99.90;;;;;;7567042;19;20089;-74
2024/02/02 18:28:26;;;;;;;7.47;3.30;;;7.80;99.90;;;;;;7572878;19;20480;-74
2024/02/02 18:31:00;;;;;;;6.95;4.07;;;7.70;99.90;;;;;;7573281;19;20010;-74
2024/02/02 18:33:32;;;;;;;7.75;4.10;;;7.70;99.90;;;;;;7565911;19;20622;-74
2024/02/02 18:36:05;;;;;;;7.50;3.70;;;7.70;99.90;;;;;;7570190;19;20022;-75
2024/02/02 18:38:40;;;;;;;7.13;4.25;;;7.80;99.90;;;;;;7577052;19;20142;-74
2024/02/02 18:41:12;;;;;;;7.57;4.30;;;7.80;99.90;;;;;;7564568;19;20408;-74
2024/02/02 18:43:45;;;;;;;5.60;3.53;;;7.60;99.90;;;;;;7567608;19;20010;-74
2024/02/02 18:46:24;;;;;;;6.30;3.63;;;7.60;99.90;;;;;;7577380;19;20055;-75
2024/02/02 18:48:56;;;;;;;6.03;3.50;;;7.70;99.90;;;;;;7580294;19;20038;-74
2024/02/02 18:51:28;;;;;;;12.82;6.35;;;7.70;99.90;;;;;;7573556;19;20018;-74
2024/02/02 18:54:01;;;;;;;12.70;6.73;;;7.70;99.90;;;;;;7574391;19;20416;-75
2024/02/02 18:56:35;;;;;;;5.43;3.15;;;7.70;99.90;;;;;;7582350;19;20500;-74
2024/02/02 18:59:08;;;;;;;5.20;2.97;;;7.90;99.90;;;;;;7565089;19;20021;-74
2024/02/02 19:01:40;;;;;;;4.80;3.25;;;8.00;99.90;;;;;;7562659;19;20477;-74
2024/02/02 19:04:13;;;;;;;6.03;3.50;;;8.10;99.90;;;;;;7565134;19;21013;-73
2024/02/02 19:06:45;;;;;;;9.48;5.57;;;8.20;99.90;;;;;;7582673;19;20037;-74
2024/02/02 19:09:19;;;;;;;10.05;5.28;;;8.10;99.90;;;;;;7576598;19;20043;-76
2024/02/02 19:11:51;;;;;;;7.85;4.30;;;8.10;99.90;;;;;;7563152;19;20025;-74
2024/02/02 19:14:24;;;;;;;6.18;3.38;;;8.10;99.30;;;;;;7569450;19;20105;-74
2024/02/02 19:16:57;;;;;;;5.70;3.28;;;8.10;98.60;;;;;;7570412;19;20045;-74
2024/02/02 19:19:29;;;;;;;4.68;2.53;;;8.20;98.00;;;;;;7574707;19;20019;-75
2024/02/02 19:22:02;;;;;;;5.18;3.15;;;8.20;96.80;;;;;;7571693;19;20029;-74
2024/02/02 19:24:37;;;;;;;7.55;4.03;;;8.30;95.40;;;;;;7570059;19;20026;-75
2024/02/02 19:27:09;;;;;;;3.60;2.08;;;8.30;96.00;;;;;;7562715;19;21479;-74
2024/02/02 19:29:42;;;;;;;5.60;2.30;;;8.40;94.50;;;;;;7549788;19;20914;-74
2024/02/02 19:32:15;;;;;;;8.80;3.72;;;8.30;94.70;;;;;;7568552;19;20366;-75
2024/02/02 19:34:48;;;;;;;5.20;2.65;;;8.40;92.70;;;;;;7572133;19;20025;-74
2024/02/02 19:37:20;;;;;;;3.33;1.97;;;8.40;92.90;;;;;;7570072;19;20043;-74
2024/02/02 19:39:52;;;;;;;2.50;1.58;;;8.40;92.40;;;;;;7550804;19;20358;-74
2024/02/02 19:42:25;;;;;;;4.57;1.67;;;8.30;91.90;;;;;;7582657;19;20022;-75
2024/02/02 19:44:58;;;;;;;1.55;1.10;;;8.30;91.70;;;;;;7565295;19;20918;-74
2024/02/02 19:47:30;;;;;;;1.55;1.20;;;8.30;91.50;;;;;;7580282;19;20082;-74
2024/02/02 19:50:03;;;;;;;1.48;1.02;;;8.40;90.20;;;;;;7551228;19;20015;-74
2024/02/02 19:52:36;;;;;;;4.90;1.08;;;8.30;90.60;;;;;;7562942;19;20528;-75
2024/02/02 19:55:08;;;;;;;2.80;1.20;;;8.30;90.80;;;;;;7568050;19;20025;-74
2024/02/02 19:57:40;;;;;;;2.75;1.58;;;8.20;90.70;;;;;;7566267;19;20030;-74
2024/02/02 20:00:13;;;;;;;1.58;1.10;;;8.20;90.00;;;;;;7552334;19;22118;-74
2024/02/02 20:02:50;;;;;;;1.67;0.90;;;8.20;89.20;;;;;;7569434;19;20014;-74
2024/02/02 20:05:30;;;;;;;4.78;1.13;;;8.20;89.70;;;;;;7585621;19;20018;-73
2024/02/02 20:08:02;;;;;;;2.28;1.73;;;8.20;86.90;;;;;;7567791;19;20387;-74
2024/02/02 20:10:35;;;;;;;9.52;3.38;;;8.30;87.00;;;;;;7572439;19;20017;-75
2024/02/02 20:13:16;;;;;;;3.72;2.25;;;8.40;85.20;;;;;;7574159;19;20021;-74
2024/02/02 20:15:48;;;;;;;2.80;1.80;;;8.50;84.90;;;;;;7559707;19;20022;-73
2024/02/02 20:18:20;;;;;;;2.13;1.27;;;8.50;84.00;;;;;;7551675;19;20018;-74
2024/02/02 20:20:53;;;;;;;1.58;1.20;;;8.50;84.50;;;;;;7565540;19;20030;-74
2024/02/02 20:23:26;;;;;;;1.73;1.40;;;8.50;83.20;;;;;;7551629;19;20511;-74
2024/02/02 20:25:59;;;;;;;2.88;2.10;;;8.40;85.60;;;;;;7559126;19;20394;-73
2024/02/02 20:28:32;;;;;;;3.13;1.63;;;8.40;82.20;;;;;;7566176;19;20956;-74
2024/02/02 20:31:05;;;;;;;2.92;1.63;;;8.50;82.30;;;;;;7548071;19;20018;-74
2024/02/02 20:33:37;;;;;;;;;;;8.40;83.10;;;;;;7584686;19;20018;-75
2024/02/02 20:36:11;;;;;;;2.90;1.85;;;8.40;82.10;;;;;;7572028;19;19945;-74
2024/02/02 20:38:43;;;;;;;2.78;1.80;;;8.40;81.70;;;;;;7556036;19;20049;-74
2024/02/02 20:41:22;;;;;;;2.20;1.67;;;8.40;80.80;;;;;;7563165;19;20022;-73
2024/02/02 20:43:55;;;;;;;1.35;1.17;;;8.30;81.90;;;;;;7565759;19;20025;-74
2024/02/02 20:46:27;;;;;;;1.77;1.40;;;8.40;79.70;;;;;;7571262;19;20025;-74
2024/02/02 20:49:00;;;;;;;3.38;1.30;;;8.40;80.20;;;;;;7573730;19;20037;-74
2024/02/02 20:51:33;;;;;;;1.67;1.20;;;8.40;80.80;;;;;;7535197;19;20019;-74
2024/02/02 20:54:05;;;;;;;1.80;1.40;;;8.30;80.10;;;;;;7571239;19;20287;-74
2024/02/02 20:56:43;;;;;;;6.03;2.03;;;8.40;79.80;;;;;;7585675;19;20048;-74
2024/02/02 20:59:16;;;;;;;2.83;1.52;;;8.30;78.50;;;;;;7567131;19;20055;-74
2024/02/02 21:01:48;;;;;;;2.65;1.73;;;8.30;79.90;;;;;;7584949;19;20583;-75
2024/02/02 21:04:20;;;;;;;1.77;1.10;;;8.40;79.40;;;;;;7576670;19;20022;-74
2024/02/02 21:06:53;;;;;;;1.15;1.00;;;8.30;79.50;;;;;;7582365;19;20025;-74
2024/02/02 21:09:27;;;;;;;4.95;3.10;;;8.30;78.00;;;;;;7573287;19;20082;-74
2024/02/02 21:11:59;;;;;;;2.08;1.30;;;8.30;78.60;;;;;;7597781;19;20015;-75
2024/02/02 21:14:31;;;;;;;1.77;1.10;;;8.30;78.00;;;;;;7586060;19;20903;-74
2024/02/02 21:17:05;;;;;;;1.40;1.30;;;8.20;80.00;;;;;;7578420;19;20018;-73
2024/02/02 21:19:39;;;;;;;4.43;1.42;;;8.20;78.40;;;;;;7583400;19;20494;-75
2024/02/02 21:22:13;;;;;;;1.10;1.00;;;8.10;79.10;;;;;;7571465;19;20030;-76
2024/02/02 21:24:46;;;;;;;1.60;1.10;;;8.10;77.80;;;;;;7586255;19;20015;-75
2024/02/02 21:27:18;;;;;;;1.95;1.02;;;8.10;76.90;;;;;;7570717;19;20077;-74
2024/02/02 21:29:50;;;;;;;2.00;1.17;;;8.20;76.40;;;;;;7573484;19;20116;-75
2024/02/02 21:32:23;;;;;;;2.85;1.40;;;8.10;78.20;;;;;;7581641;19;20026;-73
2024/02/02 21:34:55;;;;;;;2.42;1.50;;;8.10;76.60;;;;;;7587338;19;20531;-73
2024/02/02 21:37:28;;;;;;;2.25;1.52;;;8.20;76.00;;;;;;7566926;19;20018;-74
2024/02/02 21:40:00;;;;;;;2.75;1.13;;;8.10;76.30;;;;;;7591604;19;20018;-74
2024/02/02 21:42:32;;;;;;;1.83;1.20;;;8.20;74.90;;;;;;7594672;19;20043;-74
2024/02/02 21:45:05;;;;;;;2.55;1.55;;;8.20;74.80;;;;;;7593074;19;20014;-74
2024/02/02 21:47:37;;;;;;;4.28;2.47;;;8.20;74.70;;;;;;7594276;19;20021;-74
2024/02/02 21:50:10;;;;;;;1.40;1.20;;;8.20;75.40;;;;;;7598999;19;20025;-74
2024/02/02 21:52:43;;;;;;;0.80;0.80;;;8.40;71.70;;;;;;7601948;19;20014;-75
2024/02/02 21:55:15;;;;;;;1.65;1.17;;;8.60;71.20;;;;;;7586829;19;20014;-73
2024/02/02 21:57:47;;;;;;;0.90;0.90;;;8.60;72.60;;;;;;7589259;19;20022;-75
2024/02/02 22:00:21;;;;;;;1.48;0.80;;;8.60;71.30;;;;;;7576076;19;20011;-74
2024/02/02 22:02:54;;;;;;;1.08;0.98;;;8.50;72.40;;;;;;7583549;19;20022;-74
2024/02/02 22:05:26;;;;;;;0.93;0.65;;;8.40;73.10;;;;;;7589298;19;20016;-74
2024/02/02 22:07:59;;;;;;;1.08;0.70;;;8.40;70.60;;;;;;7599046;19;20024;-74
2024/02/02 22:10:32;;;;;;;2.10;1.10;;;8.50;70.70;;;;;;7595810;19;20496;-75
2024/02/02 22:13:05;;;;;;;1.10;0.80;;;8.50;72.10;;;;;;7582044;19;20510;-74
2024/02/02 22:15:37;;;;;;;2.85;0.88;;;8.50;70.90;;;;;;7584556;19;20885;-73
2024/02/02 22:18:09;;;;;;;1.98;1.23;;;8.60;70.00;;;;;;7585096;19;20015;-75
2024/02/02 22:20:45;;;;;;;1.33;1.20;;;8.70;69.40;;;;;;7581564;19;20031;-75
2024/02/02 22:23:17;;;;;;;0.80;0.70;;;8.70;69.30;;;;;;7581557;19;20011;-74
2024/02/02 22:25:49;;;;;;;1.10;0.70;;;8.80;69.80;;;;;;7587082;19;20030;-74
2024/02/02 22:28:21;;;;;;;1.38;0.98;;;8.80;69.10;;;;;;7592916;19;20086;-74
2024/02/02 22:30:55;;;;;;;1.63;0.90;;;8.70;70.20;;;;;;7589866;19;20013;-74
2024/02/02 22:33:27;;;;;;;0.80;0.60;;;8.60;69.70;;;;;;7574317;19;20018;-74
2024/02/02 22:36:04;;;;;;;1.58;0.95;;;8.70;69.20;;;;;;7580702;19;20134;-74
2024/02/02 22:38:36;;;;;;;0.70;0.70;;;8.60;69.50;;;;;;7583901;19;20011;-76
2024/02/02 22:41:23;;;;;;;1.08;0.80;;;8.60;69.80;;;;;;7593250;19;20043;-74
2024/02/02 22:44:06;;;;;;;0.88;0.80;;;8.50;69.00;;;;;;7586137;19;20894;-75
2024/02/02 22:46:38;;;;;;;0.95;0.85;;;8.60;68.70;;;;;;7594511;19;20014;-73
2024/02/02 22:49:11;;;;;;;1.43;0.90;;;8.60;67.60;;;;;;7078379;19;10000840;-73
2024/02/02 22:51:47;;;;;;;0.75;0.70;;;8.70;67.70;;;;;;7588227;19;20015;-75
2024/02/02 22:54:20;;;;;;;1.27;0.98;;;8.70;67.30;;;;;;7568772;19;20486;-73
2024/02/02 22:56:52;;;;;;;0.63;0.60;;;8.70;67.30;;;;;;7575476;19;20094;-74
2024/02/02 22:59:24;;;;;;;1.27;1.02;;;8.80;66.50;;;;;;7550569;19;20544;-73
2024/02/02 23:01:56;;;;;;;2.00;1.00;;;8.70;66.20;;;;;;7578558;19;21022;-74
2024/02/02 23:04:29;;;;;;;1.02;0.60;;;8.60;67.90;;;;;;7577849;19;20007;-74
2024/02/02 23:07:04;;;;;;;1.70;0.60;;;8.70;66.80;;;;;;7589339;19;20021;-74
2024/02/02 23:09:36;;;;;;;0.85;0.77;;;8.60;67.20;;;;;;7546320;19;20425;-73
2024/02/02 23:12:09;;;;;;;1.42;0.88;;;8.60;66.80;;;;;;7575181;19;20018;-74
2024/02/02 23:14:41;;;;;;;1.37;0.80;;;8.60;67.00;;;;;;7570843;19;20019;-74
2024/02/02 23:17:14;;;;;;;9.32;0.75;;;8.50;67.00;;;;;;7580005;19;20027;-73
2024/02/02 23:19:46;;;;;;;0.57;0.57;;;8.50;66.00;;;;;;7587567;19;20919;-73
2024/02/02 23:22:19;;;;;;;1.33;0.63;;;8.60;64.20;;;;;;7579805;19;20007;-74
2024/02/02 23:24:51;;;;;;;0.80;0.60;;;8.70;65.30;;;;;;7580978;19;20267;-76
2024/02/02 23:27:23;;;;;;;1.55;0.60;;;8.70;63.40;;;;;;7575848;19;20010;-75
2024/02/02 23:29:56;;;;;;;1.38;0.80;;;8.70;64.60;;;;;;7586163;19;20467;-75
2024/02/02 23:32:28;;;;;;;1.17;0.80;;;8.70;64.70;;;;;;7582716;19;20026;-74
2024/02/02 23:35:01;;;;;;;1.58;0.50;;;8.60;65.60;;;;;;7583110;19;20457;-74
2024/02/02 23:37:33;;;;;;;0.75;0.50;;;8.50;65.00;;;;;;7567591;19;20878;-73
2024/02/02 23:40:09;;;;;;;0.70;0.50;;;8.60;65.70;;;;;;7580709;19;20021;-74
2024/02/02 23:42:44;;;;;;;0.77;0.57;;;8.50;65.00;;;;;;7576260;19;20606;-74
2024/02/02 23:45:16;;;;;;;0.67;0.50;;;8.60;64.80;;;;;;7567434;19;20010;-72
2024/02/02 23:47:49;;;;;;;0.70;0.67;;;8.60;65.00;;;;;;7569289;19;20849;-76
2024/02/02 23:50:22;;;;;;;1.25;0.70;;;8.60;66.00;;;;;;7579216;19;21129;-74
2024/02/02 23:52:54;;;;;;;0.80;0.75;;;8.60;65.70;;;;;;7572027;19;20025;-75
2024/02/02 23:55:27;;;;;;;1.87;1.07;;;8.50;65.70;;;;;;7576101;19;20033;-73
2024/02/02 23:57:59;;;;;;;1.20;0.80;;;8.60;65.00;;;;;;7572710;19;20022;-74
